EGPF/GLA METAR and TAF weather

Enter ICAO airport designator
Station Type Date Time Source
EGPF METAR 2022/01/18 07:20 UTC NOAA

EGPF 180720Z AUTO 07004KT 9999 OVC015 05/03 Q1033


Station Type Date Time Source
EGPF Decoded METAR 2022/01/18 07:20 UTC NOAA

Glasgow Airport, United Kingdom (EGPF) 55-52N 004-26W 0M
Jan 18, 2022 - 02:20 AM EST / 2022.01.18 0720 UTC
Wind: from the ENE (070 degrees) at 5 MPH (4 KT):0
Visibility: greater than 7 mile(s):0
Sky conditions: overcast
Temperature: 41 F (5 C)
Dew Point: 37 F (3 C)
Relative Humidity: 86%
Pressure (altimeter): 30.50 in. Hg (1033 hPa)
ob: EGPF 180720Z AUTO 07004KT 9999 OVC015 05/03 Q1033
cycle: 7

Station Type Date Time Source
EGPF TAF 2022/01/18 06:06 UTC NOAA

TAF EGPF 180454Z 1806/1906 13005KT 9999 BKN020 PROB40
TEMPO 1806/1809 BKN012
BECMG 1809/1812 21010KT
TEMPO 1815/1904 20016G28KT 6000 RA BKN012 PROB30
TEMPO 1822/1904 4000 +RA
BECMG 1904/1906 31015KT

Example: see airport list